Darstellungsparameter: Aktuell verwendete Einstellungen:
Skalierung der Graphiken ... ?
xyx+y,   Skalierungsfaktor:      Skalierung: Modus: x, Faktor: 1
Darstellungszeitraum ... ?
Vom - - bis: - -   Zeitraum: 27.07.2021 - 27.07.2021
Min/Max/Avg-Anzeige ... ?
Zeige MMA aktuell
Zeige MMA Monat
Zeige MMA alles
Zeige --A aktuell
Zeige --A Monat
Zeige --A alles
Keine MMA-Anzeige
MMA:
Minimum Maximum Average (ber die Originaldaten)
MMA-Basis: 23.02.2003 - 02.08.2021
Quicknavigation für Darstellung... ?
Tage:      1T, 2T, 3T, 5T -1T -2T -3T -5T +1T +2T +3T +5T
Wochen: 1W, 2W, 3W -1W -2W -3W +1W +2W +3W
Monate: 1M, 3M, 6M -1M -3M -6M +1M +3M +6M
Jahre:    1J, 3J, 5J, 10J -1J -3J -5J -10J +1J +3J +5J +10J
Nutze für die Darstellung ... ?
Originaldaten oder Mittelwerte auf ...
Stundenbasis Tagesbasis Wochenbasis
Monatsbasis Jahresbasis      Datenbasis: Original-Daten
Darstellen als:
Statistik (Auto) Statistik J:M      Darstellung:
Zur Graphik,    zurück zur Übersicht aller Sensoren.
 
Tabellarische Datenbersicht: ?
 
Sensor: Nr:Datum:Temp:Abs-Feuchte:Windchill:Wind:
Aussen-T/F 1 27-07-2021 00:00:00 18.4 C 13.68 g/m*3 18.4 C 1.6 km/h
2 27-07-2021 00:05:00 18.4 C 13.68 g/m*3 18.4 C 3.2 km/h
3 27-07-2021 00:10:00 18.4 C 13.68 g/m*3 18.4 C 3.2 km/h
4 27-07-2021 00:15:00 18.3 C 13.6 g/m*3 18.3 C 6.4 km/h
5 27-07-2021 00:20:00 18.3 C 13.6 g/m*3 18.3 C 3.2 km/h
6 27-07-2021 00:25:00 18.3 C 13.6 g/m*3 18.3 C 3.2 km/h
7 27-07-2021 00:30:00 18.4 C 13.68 g/m*3 18.4 C 1.6 km/h
8 27-07-2021 00:35:00 18.3 C 13.6 g/m*3 18.3 C 1.6 km/h
9 27-07-2021 00:40:00 18.3 C 13.6 g/m*3 18.3 C 1.6 km/h
10 27-07-2021 00:45:00 18.3 C 13.6 g/m*3 18.3 C 0 km/h
11 27-07-2021 00:50:00 18.3 C 13.6 g/m*3 18.3 C 1.6 km/h
12 27-07-2021 00:55:00 18.2 C 13.52 g/m*3 18.2 C 1.6 km/h
13 27-07-2021 01:00:00 18.2 C 13.52 g/m*3 18.2 C 3.2 km/h
14 27-07-2021 01:05:00 18.1 C 13.44 g/m*3 18.1 C 0 km/h
15 27-07-2021 01:10:00 17.9 C 13.44 g/m*3 17.9 C 3.2 km/h
16 27-07-2021 01:15:00 17.8 C 13.36 g/m*3 17.8 C 3.2 km/h
17 27-07-2021 01:20:00 17.7 C 13.28 g/m*3 17.7 C 3.2 km/h
18 27-07-2021 01:25:00 17.6 C 13.2 g/m*3 17.6 C 0 km/h
19 27-07-2021 01:30:00 17.4 C 13.19 g/m*3 17.4 C 0 km/h
20 27-07-2021 01:35:00 17.3 C 13.11 g/m*3 17.3 C 0 km/h
21 27-07-2021 01:40:00 17.2 C 13.03 g/m*3 17.2 C 0 km/h
22 27-07-2021 01:45:00 17.1 C 12.96 g/m*3 17.1 C 0 km/h
23 27-07-2021 01:50:00 16.9 C 12.94 g/m*3 16.9 C 0 km/h
24 27-07-2021 01:55:00 16.9 C 12.94 g/m*3 16.9 C 0 km/h
25 27-07-2021 02:00:00 16.8 C 13.01 g/m*3 16.8 C 3.2 km/h
Sensor: Nr:Datum:Temp:Abs-Feuchte:Windchill:Wind:
Aussen-T/F 26 27-07-2021 02:05:00 16.7 C 12.93 g/m*3 16.7 C 0 km/h
27 27-07-2021 02:10:00 16.7 C 12.93 g/m*3 16.7 C 0 km/h
28 27-07-2021 02:15:00 16.7 C 12.93 g/m*3 16.7 C 0 km/h
29 27-07-2021 02:20:00 16.6 C 12.86 g/m*3 16.6 C 0 km/h
30 27-07-2021 02:25:00 16.5 C 12.92 g/m*3 16.5 C 0 km/h
31 27-07-2021 02:30:00 16.4 C 12.84 g/m*3 16.4 C 3.2 km/h
32 27-07-2021 02:35:00 16.4 C 12.84 g/m*3 16.4 C 4.8 km/h
33 27-07-2021 02:40:00 16.4 C 12.84 g/m*3 16.4 C 3.2 km/h
34 27-07-2021 02:45:00 16.4 C 12.84 g/m*3 16.4 C 4.8 km/h
35 27-07-2021 02:50:00 16.5 C 13.06 g/m*3 16.5 C 3.2 km/h
36 27-07-2021 02:55:00 16.6 C 13.14 g/m*3 16.6 C 1.6 km/h
37 27-07-2021 03:00:00 16.7 C 13.22 g/m*3 16.7 C 3.2 km/h
38 27-07-2021 03:05:00 16.8 C 13.3 g/m*3 16.8 C 1.6 km/h
39 27-07-2021 03:10:00 16.9 C 13.38 g/m*3 16.9 C 0 km/h
40 27-07-2021 03:15:00 16.9 C 13.38 g/m*3 16.9 C 0 km/h
41 27-07-2021 03:20:00 17 C 13.46 g/m*3 17 C 1.6 km/h
42 27-07-2021 03:25:00 16.9 C 13.38 g/m*3 16.9 C 0 km/h
43 27-07-2021 03:30:00 16.9 C 13.23 g/m*3 16.9 C 0 km/h
44 27-07-2021 03:35:00 16.9 C 13.23 g/m*3 16.9 C 0 km/h
45 27-07-2021 03:40:00 16.9 C 13.23 g/m*3 16.9 C 0 km/h
46 27-07-2021 03:45:00 16.9 C 13.23 g/m*3 16.9 C 0 km/h
47 27-07-2021 03:50:00 16.9 C 13.23 g/m*3 16.9 C 0 km/h
48 27-07-2021 03:55:00 16.9 C 13.23 g/m*3 16.9 C 0 km/h
49 27-07-2021 04:00:00 16.8 C 13.15 g/m*3 16.8 C 1.6 km/h
50 27-07-2021 04:05:00 16.8 C 13.15 g/m*3 16.8 C 0 km/h
Sensor: Nr:Datum:Temp:Abs-Feuchte:Windchill:Wind:
Aussen-T/F 51 27-07-2021 04:10:00 16.7 C 13.07 g/m*3 16.7 C 0 km/h
52 27-07-2021 04:15:00 16.7 C 13.07 g/m*3 16.7 C 0 km/h
53 27-07-2021 04:20:00 16.6 C 13 g/m*3 16.6 C 0 km/h
54 27-07-2021 04:25:00 16.5 C 13.06 g/m*3 16.5 C 0 km/h
55 27-07-2021 04:30:00 16.4 C 12.98 g/m*3 16.4 C 0 km/h
56 27-07-2021 04:35:00 16.4 C 12.98 g/m*3 16.4 C 0 km/h
57 27-07-2021 04:40:00 16.3 C 12.9 g/m*3 16.3 C 0 km/h
58 27-07-2021 04:45:00 16.2 C 12.82 g/m*3 16.2 C 0 km/h
59 27-07-2021 04:50:00 16.2 C 12.82 g/m*3 16.2 C 0 km/h
60 27-07-2021 04:55:00 16.1 C 12.75 g/m*3 16.1 C 1.6 km/h
61 27-07-2021 05:00:00 16 C 12.67 g/m*3 16 C 1.6 km/h
62 27-07-2021 05:05:00 15.9 C 12.59 g/m*3 15.9 C 0 km/h
63 27-07-2021 05:10:00 15.8 C 12.52 g/m*3 15.8 C 0 km/h
64 27-07-2021 05:15:00 15.8 C 12.52 g/m*3 15.8 C 0 km/h
65 27-07-2021 05:20:00 15.8 C 12.65 g/m*3 15.8 C 0 km/h
66 27-07-2021 05:25:00 15.8 C 12.65 g/m*3 15.8 C 0 km/h
67 27-07-2021 05:30:00 15.7 C 12.58 g/m*3 15.7 C 0 km/h
68 27-07-2021 05:35:00 15.7 C 12.58 g/m*3 15.7 C 0 km/h
69 27-07-2021 05:40:00 15.7 C 12.58 g/m*3 15.7 C 1.6 km/h
70 27-07-2021 05:45:00 15.7 C 12.58 g/m*3 15.7 C 1.6 km/h
71 27-07-2021 05:50:00 15.7 C 12.58 g/m*3 15.7 C 1.6 km/h
72 27-07-2021 05:55:00 15.7 C 12.71 g/m*3 15.7 C 0 km/h
73 27-07-2021 06:00:00 15.6 C 12.63 g/m*3 15.6 C 0 km/h
74 27-07-2021 06:05:00 15.6 C 12.5 g/m*3 15.6 C 0 km/h
75 27-07-2021 06:10:00 15.6 C 12.63 g/m*3 15.6 C 1.6 km/h
Sensor: Nr:Datum:Temp:Abs-Feuchte:Windchill:Wind:
Aussen-T/F 76 27-07-2021 06:15:00 15.6 C 12.63 g/m*3 15.6 C 1.6 km/h
77 27-07-2021 06:20:00 15.7 C 12.71 g/m*3 15.7 C 0 km/h
78 27-07-2021 06:25:00 15.7 C 12.71 g/m*3 15.7 C 0 km/h
79 27-07-2021 06:30:00 15.8 C 12.79 g/m*3 15.8 C 0 km/h
80 27-07-2021 06:35:00 15.8 C 12.79 g/m*3 15.8 C 0 km/h
81 27-07-2021 06:40:00 15.8 C 12.79 g/m*3 15.8 C 0 km/h
82 27-07-2021 06:45:00 15.9 C 12.87 g/m*3 15.9 C 0 km/h
83 27-07-2021 06:50:00 15.9 C 12.87 g/m*3 15.9 C 0 km/h
84 27-07-2021 06:55:00 15.9 C 12.87 g/m*3 15.9 C 0 km/h
85 27-07-2021 07:00:00 15.9 C 12.87 g/m*3 15.9 C 0 km/h
86 27-07-2021 07:05:00 15.9 C 12.87 g/m*3 15.9 C 0 km/h
87 27-07-2021 07:10:00 15.9 C 12.87 g/m*3 15.9 C 0 km/h
88 27-07-2021 07:15:00 16 C 12.94 g/m*3 16 C 0 km/h
89 27-07-2021 07:20:00 16.1 C 13.16 g/m*3 16.1 C 0 km/h
90 27-07-2021 07:25:00 16.2 C 13.24 g/m*3 16.2 C 0 km/h
91 27-07-2021 07:30:00 16.2 C 13.24 g/m*3 16.2 C 0 km/h
92 27-07-2021 07:35:00 16.2 C 13.1 g/m*3 16.2 C 0 km/h
93 27-07-2021 07:40:00 16.2 C 13.1 g/m*3 16.2 C 0 km/h
94 27-07-2021 07:45:00 16.2 C 13.1 g/m*3 16.2 C 1.6 km/h
95 27-07-2021 07:50:00 16.2 C 13.24 g/m*3 16.2 C 0 km/h
96 27-07-2021 07:55:00 16.3 C 13.32 g/m*3 16.3 C 4.8 km/h
97 27-07-2021 08:00:00 16.5 C 13.48 g/m*3 16.5 C 8.1 km/h
98 27-07-2021 08:05:00 16.7 C 13.5 g/m*3 16.7 C 8.1 km/h
99 27-07-2021 08:10:00 16.9 C 13.66 g/m*3 16.9 C 4.8 km/h
100 27-07-2021 08:15:00 17.2 C 13.77 g/m*3 17.2 C 3.2 km/h
Sensor: Nr:Datum:Temp:Abs-Feuchte:Windchill:Wind:
Aussen-T/F 101 27-07-2021 08:20:00 17.4 C 13.78 g/m*3 17.4 C 8.1 km/h
102 27-07-2021 08:25:00 17.6 C 13.8 g/m*3 17.6 C 8.1 km/h
103 27-07-2021 08:30:00 17.8 C 13.81 g/m*3 17.8 C 6.4 km/h
104 27-07-2021 08:35:00 17.9 C 13.89 g/m*3 17.9 C 1.6 km/h
105 27-07-2021 08:40:00 18 C 13.82 g/m*3 18 C 1.6 km/h
106 27-07-2021 08:45:00 18.1 C 14.06 g/m*3 18.1 C 0 km/h
107 27-07-2021 08:50:00 18.2 C 14.14 g/m*3 18.2 C 0 km/h
108 27-07-2021 08:55:00 18.3 C 14.07 g/m*3 18.3 C 0 km/h
109 27-07-2021 09:00:00 18.4 C 14.16 g/m*3 18.4 C 0 km/h
110 27-07-2021 09:05:00 18.6 C 14.17 g/m*3 18.6 C 0 km/h
111 27-07-2021 09:10:00 18.7 C 14.09 g/m*3 18.7 C 3.2 km/h
112 27-07-2021 09:15:00 18.8 C 14.33 g/m*3 18.8 C 0 km/h
113 27-07-2021 09:20:00 18.9 C 14.26 g/m*3 18.9 C 0 km/h
114 27-07-2021 09:25:00 19 C 14.34 g/m*3 19 C 0 km/h
115 27-07-2021 09:30:00 19.1 C 14.26 g/m*3 19.1 C 0 km/h
116 27-07-2021 09:35:00 19.2 C 14.02 g/m*3 19.2 C 1.6 km/h
117 27-07-2021 09:40:00 19.3 C 14.26 g/m*3 19.3 C 0 km/h
118 27-07-2021 09:45:00 19.4 C 14.35 g/m*3 19.4 C 1.6 km/h
119 27-07-2021 09:50:00 19.6 C 14.52 g/m*3 19.6 C 0 km/h
120 27-07-2021 09:55:00 19.7 C 14.43 g/m*3 19.7 C 1.6 km/h
121 27-07-2021 10:00:00 19.8 C 14.35 g/m*3 19.8 C 4.8 km/h
122 27-07-2021 10:05:00 19.9 C 14.43 g/m*3 19.9 C 4.8 km/h
123 27-07-2021 10:10:00 20 C 14.34 g/m*3 20 C 4.8 km/h
124 27-07-2021 10:15:00 20.1 C 14.43 g/m*3 20.1 C 3.2 km/h
125 27-07-2021 10:20:00 20.2 C 14.51 g/m*3 20.2 C 4.8 km/h
Sensor: Nr:Datum:Temp:Abs-Feuchte:Windchill:Wind:
Aussen-T/F 126 27-07-2021 10:25:00 20.3 C 14.6 g/m*3 20.3 C 4.8 km/h
127 27-07-2021 10:30:00 20.4 C 14.68 g/m*3 20.4 C 3.2 km/h
128 27-07-2021 10:35:00 20.6 C 14.68 g/m*3 20.6 C 9.7 km/h
129 27-07-2021 10:40:00 20.8 C 14.49 g/m*3 20.8 C 14.5 km/h
130 27-07-2021 10:45:00 20.9 C 14.39 g/m*3 20.9 C 8.1 km/h
131 27-07-2021 10:50:00 21.2 C 14.64 g/m*3 21.2 C 8.1 km/h
132 27-07-2021 10:55:00 21.4 C 14.81 g/m*3 21.4 C 12.9 km/h
133 27-07-2021 11:00:00 21.7 C 14.69 g/m*3 21.7 C 11.3 km/h
134 27-07-2021 11:05:00 21.8 C 14.77 g/m*3 21.8 C 8.1 km/h
135 27-07-2021 11:10:00 22.1 C 14.84 g/m*3 22.1 C 9.7 km/h
136 27-07-2021 11:15:00 22.2 C 14.53 g/m*3 22.2 C 8.1 km/h
137 27-07-2021 11:20:00 22.3 C 14.81 g/m*3 22.3 C 6.4 km/h
138 27-07-2021 11:25:00 22.4 C 14.7 g/m*3 22.4 C 8.1 km/h
139 27-07-2021 11:30:00 22.5 C 14.58 g/m*3 22.5 C 9.7 km/h
140 27-07-2021 11:35:00 22.5 C 14.78 g/m*3 22.5 C 9.7 km/h
141 27-07-2021 11:40:00 22.5 C 14.78 g/m*3 22.5 C 8.1 km/h
142 27-07-2021 11:45:00 22.5 C 14.58 g/m*3 22.5 C 9.7 km/h
143 27-07-2021 11:50:00 22.7 C 14.95 g/m*3 22.7 C 8.1 km/h
144 27-07-2021 11:55:00 22.8 C 15.44 g/m*3 22.8 C 9.7 km/h
145 27-07-2021 12:00:00 22.9 C 14.71 g/m*3 22.9 C 8.1 km/h
146 27-07-2021 12:05:00 23.1 C 14.88 g/m*3 23.1 C 11.3 km/h
147 27-07-2021 12:10:00 23.1 C 15.09 g/m*3 23.1 C 9.7 km/h
148 27-07-2021 12:15:00 23.1 C 14.47 g/m*3 23.1 C 12.9 km/h
149 27-07-2021 12:20:00 23.1 C 14.68 g/m*3 23.1 C 9.7 km/h
150 27-07-2021 12:25:00 23.2 C 14.76 g/m*3 23.2 C 12.9 km/h
Sensor: Nr:Datum:Temp:Abs-Feuchte:Windchill:Wind:
Aussen-T/F 151 27-07-2021 12:30:00 23.2 C 14.55 g/m*3 23.2 C 14.5 km/h
152 27-07-2021 12:35:00 23.3 C 14.64 g/m*3 23.3 C 8.1 km/h
153 27-07-2021 12:40:00 23.4 C 15.14 g/m*3 23.4 C 6.4 km/h
154 27-07-2021 12:45:00 23.5 C 14.8 g/m*3 23.5 C 12.9 km/h
155 27-07-2021 12:50:00 23.5 C 14.8 g/m*3 23.5 C 8.1 km/h
156 27-07-2021 12:55:00 23.5 C 14.8 g/m*3 23.5 C 8.1 km/h
157 27-07-2021 13:00:00 23.6 C 14.89 g/m*3 23.6 C 9.7 km/h
158 27-07-2021 13:05:00 23.7 C 14.54 g/m*3 23.7 C 9.7 km/h
159 27-07-2021 13:10:00 23.8 C 14.84 g/m*3 23.8 C 11.3 km/h
160 27-07-2021 13:15:00 23.9 C 14.49 g/m*3 23.9 C 12.9 km/h
161 27-07-2021 13:20:00 24 C 15.01 g/m*3 24 C 4.8 km/h
162 27-07-2021 13:25:00 24 C 15.01 g/m*3 24 C 11.3 km/h
163 27-07-2021 13:30:00 23.9 C 14.06 g/m*3 23.9 C 11.3 km/h
164 27-07-2021 13:35:00 24.1 C 14.66 g/m*3 24.1 C 11.3 km/h
165 27-07-2021 13:40:00 24.2 C 14.96 g/m*3 24.2 C 9.7 km/h
166 27-07-2021 13:45:00 24.3 C 14.38 g/m*3 24.3 C 6.4 km/h
167 27-07-2021 13:50:00 24.2 C 14.74 g/m*3 24.2 C 8.1 km/h
168 27-07-2021 13:55:00 24.3 C 14.83 g/m*3 24.3 C 4.8 km/h
169 27-07-2021 14:00:00 24.2 C 14.74 g/m*3 24.2 C 8.1 km/h
170 27-07-2021 14:05:00 24.2 C 15.18 g/m*3 24.2 C 6.4 km/h
171 27-07-2021 14:10:00 24.1 C 15.53 g/m*3 24.1 C 8.1 km/h
172 27-07-2021 14:15:00 23.8 C 14.84 g/m*3 23.8 C 6.4 km/h
173 27-07-2021 14:20:00 23.6 C 15.1 g/m*3 23.6 C 8.1 km/h
174 27-07-2021 14:25:00 23.4 C 14.93 g/m*3 23.4 C 8.1 km/h
175 27-07-2021 14:30:00 23.4 C 15.35 g/m*3 23.4 C 4.8 km/h
Sensor: Nr:Datum:Temp:Abs-Feuchte:Windchill:Wind:
Aussen-T/F 176 27-07-2021 14:35:00 23.4 C 15.35 g/m*3 23.4 C 3.2 km/h
177 27-07-2021 14:40:00 23.3 C 15.47 g/m*3 23.3 C 8.1 km/h
178 27-07-2021 14:45:00 23.2 C 15.38 g/m*3 23.2 C 6.4 km/h
179 27-07-2021 14:50:00 23.1 C 15.3 g/m*3 23.1 C 11.3 km/h
180 27-07-2021 14:55:00 22.5 C 13.58 g/m*3 22.5 C 14.5 km/h
181 27-07-2021 15:00:00 21.7 C 13.73 g/m*3 21.7 C 11.3 km/h
182 27-07-2021 15:05:00 21.2 C 14.08 g/m*3 21.2 C 6.4 km/h
183 27-07-2021 15:10:00 20.7 C 14.04 g/m*3 20.7 C 4.8 km/h
184 27-07-2021 15:15:00 20.4 C 14.15 g/m*3 20.4 C 6.4 km/h
185 27-07-2021 15:20:00 20.1 C 14.08 g/m*3 20.1 C 6.4 km/h
186 27-07-2021 15:25:00 19.8 C 14.01 g/m*3 19.8 C 4.8 km/h
187 27-07-2021 15:30:00 19.7 C 14.09 g/m*3 19.7 C 4.8 km/h
188 27-07-2021 15:35:00 19.4 C 14.01 g/m*3 19.4 C 3.2 km/h
189 27-07-2021 15:40:00 19.3 C 13.93 g/m*3 19.3 C 8.1 km/h
190 27-07-2021 15:45:00 19.1 C 13.93 g/m*3 19.1 C 4.8 km/h
191 27-07-2021 15:50:00 18.8 C 13.69 g/m*3 18.8 C 4.8 km/h
192 27-07-2021 15:55:00 18.4 C 13.68 g/m*3 18.4 C 9.7 km/h
193 27-07-2021 16:00:00 18.2 C 13.52 g/m*3 18.2 C 12.9 km/h
194 27-07-2021 16:05:00 18 C 13.52 g/m*3 18 C 9.7 km/h
195 27-07-2021 16:10:00 17.9 C 13.59 g/m*3 17.9 C 8.1 km/h
196 27-07-2021 16:15:00 17.9 C 13.74 g/m*3 17.9 C 8.1 km/h
197 27-07-2021 16:20:00 17.9 C 13.74 g/m*3 17.9 C 11.3 km/h
198 27-07-2021 16:25:00 17.9 C 13.89 g/m*3 17.9 C 0 km/h
199 27-07-2021 16:30:00 17.9 C 13.89 g/m*3 17.9 C 0 km/h
200 27-07-2021 16:35:00 17.9 C 14.05 g/m*3 17.9 C 1.6 km/h
Sensor: Nr:Datum:Temp:Abs-Feuchte:Windchill:Wind:
Aussen-T/F 201 27-07-2021 16:40:00 18 C 14.13 g/m*3 18 C 0 km/h
202 27-07-2021 16:45:00 18.1 C 14.21 g/m*3 18.1 C 1.6 km/h
203 27-07-2021 16:50:00 17.9 C 13.89 g/m*3 17.9 C 11.3 km/h
204 27-07-2021 16:55:00 17.9 C 14.05 g/m*3 17.9 C 1.6 km/h
205 27-07-2021 17:00:00 17.9 C 14.05 g/m*3 17.9 C 1.6 km/h
206 27-07-2021 17:05:00 17.9 C 14.05 g/m*3 17.9 C 1.6 km/h
207 27-07-2021 17:10:00 17.9 C 14.05 g/m*3 17.9 C 4.8 km/h
208 27-07-2021 17:15:00 17.9 C 14.05 g/m*3 17.9 C 0 km/h
209 27-07-2021 17:20:00 17.9 C 14.05 g/m*3 17.9 C 0 km/h
210 27-07-2021 17:25:00 17.9 C 14.05 g/m*3 17.9 C 0 km/h
211 27-07-2021 17:30:00 17.9 C 14.05 g/m*3 17.9 C 0 km/h
212 27-07-2021 17:35:00 17.8 C 13.96 g/m*3 17.8 C 0 km/h
213 27-07-2021 17:40:00 17.8 C 13.96 g/m*3 17.8 C 1.6 km/h
214 27-07-2021 17:45:00 17.8 C 14.12 g/m*3 17.8 C 0 km/h
215 27-07-2021 17:50:00 18 C 14.28 g/m*3 18 C 0 km/h
216 27-07-2021 17:55:00 18 C 14.13 g/m*3 18 C 1.6 km/h
217 27-07-2021 18:00:00 18.2 C 14.46 g/m*3 18.2 C 0 km/h
218 27-07-2021 18:05:00 18.3 C 14.38 g/m*3 18.3 C 1.6 km/h
219 27-07-2021 18:10:00 18.3 C 14.23 g/m*3 18.3 C 1.6 km/h
220 27-07-2021 18:15:00 18.3 C 14.23 g/m*3 18.3 C 0 km/h
221 27-07-2021 18:20:00 18.3 C 14.07 g/m*3 18.3 C 1.6 km/h
222 27-07-2021 18:25:00 18.3 C 14.07 g/m*3 18.3 C 1.6 km/h
223 27-07-2021 18:30:00 18.3 C 14.07 g/m*3 18.3 C 0 km/h
224 27-07-2021 18:35:00 18.3 C 14.07 g/m*3 18.3 C 1.6 km/h
225 27-07-2021 18:40:00 18.3 C 14.07 g/m*3 18.3 C 0 km/h
Sensor: Nr:Datum:Temp:Abs-Feuchte:Windchill:Wind:
Aussen-T/F 226 27-07-2021 18:45:00 18.4 C 14.31 g/m*3 18.4 C 0 km/h
227 27-07-2021 18:50:00 18.4 C 14.31 g/m*3 18.4 C 0 km/h
228 27-07-2021 18:55:00 18.3 C 14.23 g/m*3 18.3 C 1.6 km/h
229 27-07-2021 19:00:00 18.2 C 14.14 g/m*3 18.2 C 4.8 km/h
230 27-07-2021 19:05:00 17.9 C 13.89 g/m*3 17.9 C 3.2 km/h
231 27-07-2021 19:10:00 17.7 C 13.73 g/m*3 17.7 C 6.4 km/h
232 27-07-2021 19:15:00 17.6 C 13.8 g/m*3 17.6 C 0 km/h
233 27-07-2021 19:20:00 17.5 C 13.72 g/m*3 17.5 C 0 km/h
234 27-07-2021 19:25:00 17.4 C 13.63 g/m*3 17.4 C 1.6 km/h
235 27-07-2021 19:30:00 17.3 C 13.55 g/m*3 17.3 C 0 km/h
236 27-07-2021 19:35:00 17.3 C 13.7 g/m*3 17.3 C 0 km/h
237 27-07-2021 19:40:00 17.3 C 13.7 g/m*3 17.3 C 0 km/h
238 27-07-2021 19:45:00 17.3 C 13.7 g/m*3 17.3 C 0 km/h
239 27-07-2021 19:50:00 17.3 C 13.7 g/m*3 17.3 C 3.2 km/h
240 27-07-2021 19:55:00 17.3 C 13.7 g/m*3 17.3 C 3.2 km/h
241 27-07-2021 20:00:00 17.2 C 13.77 g/m*3 17.2 C 0 km/h
242 27-07-2021 20:05:00 17.2 C 13.77 g/m*3 17.2 C 0 km/h
243 27-07-2021 20:10:00 17.2 C 13.77 g/m*3 17.2 C 0 km/h
244 27-07-2021 20:15:00 17.2 C 13.77 g/m*3 17.2 C 1.6 km/h
245 27-07-2021 20:20:00 17.1 C 13.68 g/m*3 17.1 C 0 km/h
246 27-07-2021 20:25:00 17.1 C 13.68 g/m*3 17.1 C 0 km/h
247 27-07-2021 20:30:00 17.1 C 13.68 g/m*3 17.1 C 1.6 km/h
248 27-07-2021 20:35:00 17 C 13.6 g/m*3 17 C 0 km/h
249 27-07-2021 20:40:00 17 C 13.6 g/m*3 17 C 0 km/h
250 27-07-2021 20:45:00 16.9 C 13.52 g/m*3 16.9 C 0 km/h
Sensor: Nr:Datum:Temp:Abs-Feuchte:Windchill:Wind:
Aussen-T/F 251 27-07-2021 20:50:00 16.9 C 13.52 g/m*3 16.9 C 0 km/h
252 27-07-2021 20:55:00 16.9 C 13.52 g/m*3 16.9 C 0 km/h
253 27-07-2021 21:00:00 16.8 C 13.44 g/m*3 16.8 C 0 km/h
254 27-07-2021 21:05:00 16.8 C 13.44 g/m*3 16.8 C 0 km/h
255 27-07-2021 21:10:00 16.8 C 13.44 g/m*3 16.8 C 0 km/h
256 27-07-2021 21:15:00 16.8 C 13.44 g/m*3 16.8 C 1.6 km/h
257 27-07-2021 21:20:00 16.7 C 13.5 g/m*3 16.7 C 1.6 km/h
258 27-07-2021 21:25:00 16.7 C 13.5 g/m*3 16.7 C 1.6 km/h
259 27-07-2021 21:30:00 16.7 C 13.5 g/m*3 16.7 C 1.6 km/h
260 27-07-2021 21:35:00 16.7 C 13.5 g/m*3 16.7 C 0 km/h
261 27-07-2021 21:40:00 16.7 C 13.5 g/m*3 16.7 C 0 km/h
262 27-07-2021 21:45:00 16.6 C 13.42 g/m*3 16.6 C 0 km/h
263 27-07-2021 21:50:00 16.6 C 13.42 g/m*3 16.6 C 0 km/h
264 27-07-2021 21:55:00 16.6 C 13.42 g/m*3 16.6 C 1.6 km/h
265 27-07-2021 22:00:00 16.5 C 13.34 g/m*3 16.5 C 0 km/h
266 27-07-2021 22:05:00 16.5 C 13.34 g/m*3 16.5 C 0 km/h
267 27-07-2021 22:10:00 16.4 C 13.26 g/m*3 16.4 C 0 km/h
268 27-07-2021 22:15:00 16.4 C 13.26 g/m*3 16.4 C 0 km/h
269 27-07-2021 22:20:00 16.3 C 13.18 g/m*3 16.3 C 0 km/h
270 27-07-2021 22:25:00 16.3 C 13.18 g/m*3 16.3 C 0 km/h
271 27-07-2021 22:30:00 16.3 C 13.18 g/m*3 16.3 C 1.6 km/h
272 27-07-2021 22:35:00 16.3 C 13.18 g/m*3 16.3 C 0 km/h
273 27-07-2021 22:40:00 16.2 C 13.1 g/m*3 16.2 C 3.2 km/h
274 27-07-2021 22:45:00 16.2 C 13.1 g/m*3 16.2 C 3.2 km/h
275 27-07-2021 22:50:00 16.2 C 13.1 g/m*3 16.2 C 3.2 km/h
Sensor: Nr:Datum:Temp:Abs-Feuchte:Windchill:Wind:
Aussen-T/F 276 27-07-2021 22:55:00 16.1 C 13.02 g/m*3 16.1 C 1.6 km/h
277 27-07-2021 23:00:00 16.1 C 13.02 g/m*3 16.1 C 0 km/h
278 27-07-2021 23:05:00 16 C 12.94 g/m*3 16 C 0 km/h
279 27-07-2021 23:10:00 15.9 C 12.87 g/m*3 15.9 C 1.6 km/h
280 27-07-2021 23:15:00 15.9 C 12.87 g/m*3 15.9 C 3.2 km/h
281 27-07-2021 23:20:00 15.8 C 12.79 g/m*3 15.8 C 3.2 km/h
282 27-07-2021 23:25:00 15.8 C 12.79 g/m*3 15.8 C 3.2 km/h
283 27-07-2021 23:30:00 15.7 C 12.71 g/m*3 15.7 C 4.8 km/h
284 27-07-2021 23:35:00 15.6 C 12.63 g/m*3 15.6 C 4.8 km/h
285 27-07-2021 23:40:00 15.6 C 12.63 g/m*3 15.6 C 4.8 km/h
286 27-07-2021 23:45:00 15.4 C 12.48 g/m*3 15.4 C 8.1 km/h
287 27-07-2021 23:50:00 15.4 C 12.61 g/m*3 15.4 C 6.4 km/h
288 27-07-2021 23:55:00 15.3 C 12.41 g/m*3 15.3 C 6.4 km/h

Legende:
   Min
   Max


Maximal/Minimal-Werte vom 23.02.2003 - 02.08.2021

Sensor Min Max Avg
Temp
(Aussen-T/F)
-16.4 °C
20-12-2009  01:30:01
40.4 °C
25-07-2019  16:20:00
11.2 °C

Die Daten stammen von einer Davis Vantage Pro 2 Wetter-Station und werden unter Linux mit der Software wview2wettercgi und aufbereitet. Alle Angaben erfolgen ohne Gewähr für ihre Vollständigkeit oder Richtigkeit.
Kontakt: Rainer Krienke krienke@uni-koblenz.de . Meine Webseiten an der Uni Koblenz oder privat.
Version: $Revision: 0.78 $